sensor_id;sensor_type;location;lat;lon;timestamp;temperature;humidity
25320;DHT22;13256;49.012;8.610;2023-02-27T00:01:54;-0.50;99.90
25320;DHT22;13256;49.012;8.610;2023-02-27T00:04:22;-0.50;99.90
25320;DHT22;13256;49.012;8.610;2023-02-27T00:09:47;-0.50;99.90
25320;DHT22;13256;49.012;8.610;2023-02-27T00:12:15;-0.50;99.90
25320;DHT22;13256;49.012;8.610;2023-02-27T00:14:46;-0.50;99.90
25320;DHT22;13256;49.012;8.610;2023-02-27T00:17:15;-0.60;99.90
25320;DHT22;13256;49.012;8.610;2023-02-27T00:19:51;-0.60;99.90
25320;DHT22;13256;49.012;8.610;2023-02-27T00:22:20;-0.60;99.90
25320;DHT22;13256;49.012;8.610;2023-02-27T00:24:51;-0.60;99.90
25320;DHT22;13256;49.012;8.610;2023-02-27T00:27:23;-0.60;99.90
25320;DHT22;13256;49.012;8.610;2023-02-27T00:29:52;-0.60;99.90
25320;DHT22;13256;49.012;8.610;2023-02-27T00:32:21;-0.60;99.90
25320;DHT22;13256;49.012;8.610;2023-02-27T00:34:49;-0.60;99.90
25320;DHT22;13256;49.012;8.610;2023-02-27T00:37:16;-0.60;99.90
25320;DHT22;13256;49.012;8.610;2023-02-27T00:39:46;-0.60;99.90
25320;DHT22;13256;49.012;8.610;2023-02-27T00:42:16;-0.60;99.90
25320;DHT22;13256;49.012;8.610;2023-02-27T00:44:45;-0.60;99.90
25320;DHT22;13256;49.012;8.610;2023-02-27T00:47:15;-0.60;99.90
25320;DHT22;13256;49.012;8.610;2023-02-27T00:49:46;-0.70;99.90
25320;DHT22;13256;49.012;8.610;2023-02-27T00:52:19;-0.60;99.90
25320;DHT22;13256;49.012;8.610;2023-02-27T00:57:51;-0.70;99.90
25320;DHT22;13256;49.012;8.610;2023-02-27T01:14:53;-0.80;99.90
25320;DHT22;13256;49.012;8.610;2023-02-27T01:17:23;-0.80;99.90
25320;DHT22;13256;49.012;8.610;2023-02-27T01:19:51;-0.80;99.90
25320;DHT22;13256;49.012;8.610;2023-02-27T01:22:21;-0.80;99.90
25320;DHT22;13256;49.012;8.610;2023-02-27T01:24:51;-0.80;99.90
25320;DHT22;13256;49.012;8.610;2023-02-27T01:27:19;-0.80;99.90
25320;DHT22;13256;49.012;8.610;2023-02-27T01:29:51;-0.90;99.90
25320;DHT22;13256;49.012;8.610;2023-02-27T01:32:21;-0.90;99.90
25320;DHT22;13256;49.012;8.610;2023-02-27T01:34:57;-0.90;99.90
25320;DHT22;13256;49.012;8.610;2023-02-27T01:37:25;-0.90;99.90
25320;DHT22;13256;49.012;8.610;2023-02-27T01:39:54;-0.90;99.90
25320;DHT22;13256;49.012;8.610;2023-02-27T01:42:27;-0.90;99.90
25320;DHT22;13256;49.012;8.610;2023-02-27T01:51:09;-0.90;99.90
25320;DHT22;13256;49.012;8.610;2023-02-27T01:53:48;-0.90;99.90
25320;DHT22;13256;49.012;8.610;2023-02-27T01:56:39;-1.00;99.90
25320;DHT22;13256;49.012;8.610;2023-02-27T01:59:08;-1.00;99.90
25320;DHT22;13256;49.012;8.610;2023-02-27T02:01:38;-1.00;99.90
25320;DHT22;13256;49.012;8.610;2023-02-27T02:04:32;-1.00;99.90
25320;DHT22;13256;49.012;8.610;2023-02-27T02:07:13;-1.00;99.90
25320;DHT22;13256;49.012;8.610;2023-02-27T02:10:00;-1.00;99.90
25320;DHT22;13256;49.012;8.610;2023-02-27T02:12:32;-1.00;99.90
25320;DHT22;13256;49.012;8.610;2023-02-27T02:15:00;-1.00;99.90
25320;DHT22;13256;49.012;8.610;2023-02-27T02:29:46;-1.00;99.90
25320;DHT22;13256;49.012;8.610;2023-02-27T02:41:17;-1.00;99.90
25320;DHT22;13256;49.012;8.610;2023-02-27T03:00:49;-1.00;99.90
25320;DHT22;13256;49.012;8.610;2023-02-27T03:03:36;-1.00;99.90
25320;DHT22;13256;49.012;8.610;2023-02-27T03:06:29;-1.00;99.90
25320;DHT22;13256;49.012;8.610;2023-02-27T03:09:48;-1.00;99.90
25320;DHT22;13256;49.012;8.610;2023-02-27T03:12:22;-1.10;99.90
25320;DHT22;13256;49.012;8.610;2023-02-27T03:15:12;-1.10;99.90
25320;DHT22;13256;49.012;8.610;2023-02-27T03:18:13;-1.10;99.90
25320;DHT22;13256;49.012;8.610;2023-02-27T03:20:54;-1.10;99.90
25320;DHT22;13256;49.012;8.610;2023-02-27T03:23:37;-1.10;99.90
25320;DHT22;13256;49.012;8.610;2023-02-27T03:26:41;-1.10;99.90
25320;DHT22;13256;49.012;8.610;2023-02-27T03:29:19;-1.10;99.90
25320;DHT22;13256;49.012;8.610;2023-02-27T03:31:50;-1.20;99.90
25320;DHT22;13256;49.012;8.610;2023-02-27T03:37:32;-1.20;99.90
25320;DHT22;13256;49.012;8.610;2023-02-27T03:40:36;-1.20;99.90
25320;DHT22;13256;49.012;8.610;2023-02-27T03:46:21;-1.20;99.90
25320;DHT22;13256;49.012;8.610;2023-02-27T03:48:52;-1.20;99.90
25320;DHT22;13256;49.012;8.610;2023-02-27T03:51:22;-1.20;99.90
25320;DHT22;13256;49.012;8.610;2023-02-27T03:59:22;-1.20;99.90
25320;DHT22;13256;49.012;8.610;2023-02-27T04:01:54;-1.20;99.90
25320;DHT22;13256;49.012;8.610;2023-02-27T04:04:28;-1.20;99.90
25320;DHT22;13256;49.012;8.610;2023-02-27T04:17:00;-1.20;99.90
25320;DHT22;13256;49.012;8.610;2023-02-27T04:22:30;-1.30;99.90
25320;DHT22;13256;49.012;8.610;2023-02-27T04:25:23;-1.30;99.90
25320;DHT22;13256;49.012;8.610;2023-02-27T04:31:20;-1.30;99.90
25320;DHT22;13256;49.012;8.610;2023-02-27T04:36:43;-1.40;99.90
25320;DHT22;13256;49.012;8.610;2023-02-27T04:39:23;-1.40;99.90
25320;DHT22;13256;49.012;8.610;2023-02-27T04:42:10;-1.40;99.90
25320;DHT22;13256;49.012;8.610;2023-02-27T04:44:39;-1.40;99.90
25320;DHT22;13256;49.012;8.610;2023-02-27T04:47:09;-1.40;99.90
25320;DHT22;13256;49.012;8.610;2023-02-27T04:49:52;-1.40;99.90
25320;DHT22;13256;49.012;8.610;2023-02-27T04:52:37;-1.40;99.90
25320;DHT22;13256;49.012;8.610;2023-02-27T04:55:13;-1.40;99.90
25320;DHT22;13256;49.012;8.610;2023-02-27T04:57:51;-1.40;99.90
25320;DHT22;13256;49.012;8.610;2023-02-27T05:00:21;-1.40;99.90
25320;DHT22;13256;49.012;8.610;2023-02-27T05:02:59;-1.40;99.90
25320;DHT22;13256;49.012;8.610;2023-02-27T05:05:32;-1.40;99.90
25320;DHT22;13256;49.012;8.610;2023-02-27T05:11:15;-1.50;99.90
25320;DHT22;13256;49.012;8.610;2023-02-27T05:13:55;-1.50;99.90
25320;DHT22;13256;49.012;8.610;2023-02-27T05:18:54;-1.50;99.90
25320;DHT22;13256;49.012;8.610;2023-02-27T05:21:48;-1.50;99.90
25320;DHT22;13256;49.012;8.610;2023-02-27T05:28:19;-1.50;99.90
25320;DHT22;13256;49.012;8.610;2023-02-27T05:34:05;-1.60;99.90
25320;DHT22;13256;49.012;8.610;2023-02-27T05:37:05;-1.60;99.90
25320;DHT22;13256;49.012;8.610;2023-02-27T05:39:39;-1.60;99.90
25320;DHT22;13256;49.012;8.610;2023-02-27T05:42:15;-1.60;99.90
25320;DHT22;13256;49.012;8.610;2023-02-27T05:44:59;-1.60;99.90
25320;DHT22;13256;49.012;8.610;2023-02-27T05:47:31;-1.60;99.90
25320;DHT22;13256;49.012;8.610;2023-02-27T05:50:17;-1.60;99.90
25320;DHT22;13256;49.012;8.610;2023-02-27T06:01:38;-1.60;99.90
25320;DHT22;13256;49.012;8.610;2023-02-27T06:04:06;-1.60;99.90
25320;DHT22;13256;49.012;8.610;2023-02-27T06:06:35;-1.60;99.90
25320;DHT22;13256;49.012;8.610;2023-02-27T06:09:07;-1.60;99.90
25320;DHT22;13256;49.012;8.610;2023-02-27T06:11:38;-1.60;99.90
25320;DHT22;13256;49.012;8.610;2023-02-27T06:14:06;-1.60;99.90
25320;DHT22;13256;49.012;8.610;2023-02-27T06:16:35;-1.60;99.90
25320;DHT22;13256;49.012;8.610;2023-02-27T06:19:06;-1.60;99.90
25320;DHT22;13256;49.012;8.610;2023-02-27T06:21:32;-1.60;99.90
25320;DHT22;13256;49.012;8.610;2023-02-27T06:24:11;-1.60;99.90
25320;DHT22;13256;49.012;8.610;2023-02-27T06:26:48;-1.60;99.90
25320;DHT22;13256;49.012;8.610;2023-02-27T06:29:19;-1.60;99.90
25320;DHT22;13256;49.012;8.610;2023-02-27T06:31:47;-1.60;99.90
25320;DHT22;13256;49.012;8.610;2023-02-27T06:34:15;-1.60;99.90
25320;DHT22;13256;49.012;8.610;2023-02-27T06:36:45;-1.60;99.90
25320;DHT22;13256;49.012;8.610;2023-02-27T06:39:16;-1.60;99.90
25320;DHT22;13256;49.012;8.610;2023-02-27T06:51:11;-1.50;99.90
25320;DHT22;13256;49.012;8.610;2023-02-27T06:53:44;-1.50;99.90
25320;DHT22;13256;49.012;8.610;2023-02-27T06:56:15;-1.50;99.90
25320;DHT22;13256;49.012;8.610;2023-02-27T06:58:51;-1.50;99.90
25320;DHT22;13256;49.012;8.610;2023-02-27T07:01:21;-1.50;99.90
25320;DHT22;13256;49.012;8.610;2023-02-27T07:03:50;-1.50;99.90
25320;DHT22;13256;49.012;8.610;2023-02-27T07:06:24;-1.50;99.90
25320;DHT22;13256;49.012;8.610;2023-02-27T07:09:20;-1.40;99.90
25320;DHT22;13256;49.012;8.610;2023-02-27T07:11:54;-1.40;99.90
25320;DHT22;13256;49.012;8.610;2023-02-27T07:14:24;-1.40;99.90
25320;DHT22;13256;49.012;8.610;2023-02-27T07:17:20;-1.40;99.90
25320;DHT22;13256;49.012;8.610;2023-02-27T07:20:18;-1.30;99.90
25320;DHT22;13256;49.012;8.610;2023-02-27T07:22:50;-1.30;99.90
25320;DHT22;13256;49.012;8.610;2023-02-27T07:25:21;-1.20;99.90
25320;DHT22;13256;49.012;8.610;2023-02-27T07:28:05;-1.20;99.90
25320;DHT22;13256;49.012;8.610;2023-02-27T07:30:34;-1.20;99.90
25320;DHT22;13256;49.012;8.610;2023-02-27T07:36:17;-1.00;99.90
25320;DHT22;13256;49.012;8.610;2023-02-27T07:38:49;-1.00;99.90
25320;DHT22;13256;49.012;8.610;2023-02-27T07:41:21;-0.90;99.90
25320;DHT22;13256;49.012;8.610;2023-02-27T07:44:08;-0.90;99.90
25320;DHT22;13256;49.012;8.610;2023-02-27T07:46:39;-0.80;99.90
25320;DHT22;13256;49.012;8.610;2023-02-27T07:49:06;-0.70;99.90
25320;DHT22;13256;49.012;8.610;2023-02-27T07:51:41;-0.70;99.90
25320;DHT22;13256;49.012;8.610;2023-02-27T07:54:14;-0.60;99.90
25320;DHT22;13256;49.012;8.610;2023-02-27T07:56:46;-0.50;99.90
25320;DHT22;13256;49.012;8.610;2023-02-27T07:59:21;-0.40;99.90
25320;DHT22;13256;49.012;8.610;2023-02-27T08:01:52;-0.40;99.90
25320;DHT22;13256;49.012;8.610;2023-02-27T08:04:19;-0.20;99.90
25320;DHT22;13256;49.012;8.610;2023-02-27T08:06:46;-0.20;99.90
25320;DHT22;13256;49.012;8.610;2023-02-27T08:09:12;0.00;99.90
25320;DHT22;13256;49.012;8.610;2023-02-27T08:12:06;0.00;99.90
25320;DHT22;13256;49.012;8.610;2023-02-27T08:14:34;0.20;99.90
25320;DHT22;13256;49.012;8.610;2023-02-27T08:17:05;0.30;99.90
25320;DHT22;13256;49.012;8.610;2023-02-27T08:19:33;0.40;99.90
25320;DHT22;13256;49.012;8.610;2023-02-27T08:22:01;0.50;99.90
25320;DHT22;13256;49.012;8.610;2023-02-27T08:24:31;0.70;99.90
25320;DHT22;13256;49.012;8.610;2023-02-27T08:27:06;0.80;99.90
25320;DHT22;13256;49.012;8.610;2023-02-27T08:29:37;1.00;99.90
25320;DHT22;13256;49.012;8.610;2023-02-27T08:32:12;1.10;99.90
25320;DHT22;13256;49.012;8.610;2023-02-27T08:34:41;1.20;99.90
25320;DHT22;13256;49.012;8.610;2023-02-27T08:49:14;1.90;99.90
25320;DHT22;13256;49.012;8.610;2023-02-27T08:52:53;2.00;99.90
25320;DHT22;13256;49.012;8.610;2023-02-27T08:55:41;2.10;99.90
25320;DHT22;13256;49.012;8.610;2023-02-27T08:58:33;2.30;99.90
25320;DHT22;13256;49.012;8.610;2023-02-27T09:01:04;2.50;99.90
25320;DHT22;13256;49.012;8.610;2023-02-27T09:03:35;2.50;99.90
25320;DHT22;13256;49.012;8.610;2023-02-27T09:06:34;2.60;99.90
25320;DHT22;13256;49.012;8.610;2023-02-27T09:09:02;2.80;99.90
25320;DHT22;13256;49.012;8.610;2023-02-27T09:11:29;2.80;99.90
25320;DHT22;13256;49.012;8.610;2023-02-27T09:14:03;3.00;99.90
25320;DHT22;13256;49.012;8.610;2023-02-27T09:16:32;3.10;99.90
25320;DHT22;13256;49.012;8.610;2023-02-27T09:18:59;3.00;99.90
25320;DHT22;13256;49.012;8.610;2023-02-27T09:21:51;3.20;99.90
25320;DHT22;13256;49.012;8.610;2023-02-27T09:24:30;3.40;99.90
25320;DHT22;13256;49.012;8.610;2023-02-27T09:27:00;3.50;99.90
25320;DHT22;13256;49.012;8.610;2023-02-27T09:29:33;3.40;99.90
25320;DHT22;13256;49.012;8.610;2023-02-27T09:32:01;3.40;99.90
25320;DHT22;13256;49.012;8.610;2023-02-27T09:34:31;3.50;99.90
25320;DHT22;13256;49.012;8.610;2023-02-27T09:37:24;3.60;99.90
25320;DHT22;13256;49.012;8.610;2023-02-27T09:39:53;3.80;99.90
25320;DHT22;13256;49.012;8.610;2023-02-27T09:42:37;4.10;99.90
25320;DHT22;13256;49.012;8.610;2023-02-27T09:45:26;4.20;99.90
25320;DHT22;13256;49.012;8.610;2023-02-27T09:51:18;4.70;99.90
25320;DHT22;13256;49.012;8.610;2023-02-27T09:53:48;4.90;99.90
25320;DHT22;13256;49.012;8.610;2023-02-27T09:56:35;5.10;99.90
25320;DHT22;13256;49.012;8.610;2023-02-27T09:59:33;5.20;99.90
25320;DHT22;13256;49.012;8.610;2023-02-27T10:02:29;5.20;99.90
25320;DHT22;13256;49.012;8.610;2023-02-27T10:05:30;5.30;99.90
25320;DHT22;13256;49.012;8.610;2023-02-27T10:11:07;5.50;99.50
25320;DHT22;13256;49.012;8.610;2023-02-27T10:16:18;5.50;99.90
25320;DHT22;13256;49.012;8.610;2023-02-27T10:18:50;5.70;99.40
25320;DHT22;13256;49.012;8.610;2023-02-27T10:21:23;5.80;98.50
25320;DHT22;13256;49.012;8.610;2023-02-27T10:24:03;5.90;97.90
25320;DHT22;13256;49.012;8.610;2023-02-27T10:26:43;6.00;98.10
25320;DHT22;13256;49.012;8.610;2023-02-27T10:29:27;5.90;96.90
25320;DHT22;13256;49.012;8.610;2023-02-27T10:32:31;5.90;97.20
25320;DHT22;13256;49.012;8.610;2023-02-27T10:35:29;5.90;96.10
25320;DHT22;13256;49.012;8.610;2023-02-27T10:40:56;5.90;96.00
25320;DHT22;13256;49.012;8.610;2023-02-27T10:43:26;6.30;97.10
25320;DHT22;13256;49.012;8.610;2023-02-27T10:46:02;6.50;95.70
25320;DHT22;13256;49.012;8.610;2023-02-27T10:48:36;6.60;95.80
25320;DHT22;13256;49.012;8.610;2023-02-27T10:51:29;6.70;95.40
25320;DHT22;13256;49.012;8.610;2023-02-27T10:59:24;6.90;93.30
25320;DHT22;13256;49.012;8.610;2023-02-27T11:04:30;6.60;93.90
25320;DHT22;13256;49.012;8.610;2023-02-27T11:07:04;6.70;93.90
25320;DHT22;13256;49.012;8.610;2023-02-27T11:09:35;6.90;94.40
25320;DHT22;13256;49.012;8.610;2023-02-27T11:12:28;7.20;94.00
25320;DHT22;13256;49.012;8.610;2023-02-27T11:15:20;7.30;93.00
25320;DHT22;13256;49.012;8.610;2023-02-27T11:17:52;7.20;92.40
25320;DHT22;13256;49.012;8.610;2023-02-27T11:20:34;7.30;93.10
25320;DHT22;13256;49.012;8.610;2023-02-27T11:23:23;7.40;91.50
25320;DHT22;13256;49.012;8.610;2023-02-27T11:26:18;7.40;91.20
25320;DHT22;13256;49.012;8.610;2023-02-27T11:29:11;7.40;91.30
25320;DHT22;13256;49.012;8.610;2023-02-27T11:31:55;7.10;90.70
25320;DHT22;13256;49.012;8.610;2023-02-27T11:37:02;7.00;91.30
25320;DHT22;13256;49.012;8.610;2023-02-27T11:39:37;7.10;92.30
25320;DHT22;13256;49.012;8.610;2023-02-27T11:42:21;7.30;91.80
25320;DHT22;13256;49.012;8.610;2023-02-27T11:44:55;7.40;91.30
25320;DHT22;13256;49.012;8.610;2023-02-27T11:47:27;7.40;90.80
25320;DHT22;13256;49.012;8.610;2023-02-27T11:57:24;7.90;90.40
25320;DHT22;13256;49.012;8.610;2023-02-27T12:00:29;7.90;89.30
25320;DHT22;13256;49.012;8.610;2023-02-27T12:11:49;8.10;88.50
25320;DHT22;13256;49.012;8.610;2023-02-27T12:14:24;8.30;86.10
25320;DHT22;13256;49.012;8.610;2023-02-27T12:34:53;8.60;80.60
25320;DHT22;13256;49.012;8.610;2023-02-27T12:37:55;8.40;79.00
25320;DHT22;13256;49.012;8.610;2023-02-27T12:40:33;8.10;78.70
25320;DHT22;13256;49.012;8.610;2023-02-27T12:51:59;7.20;79.90
25320;DHT22;13256;49.012;8.610;2023-02-27T12:57:43;7.20;82.80
25320;DHT22;13256;49.012;8.610;2023-02-27T13:03:55;7.80;80.90
25320;DHT22;13256;49.012;8.610;2023-02-27T13:15:42;8.10;76.50
25320;DHT22;13256;49.012;8.610;2023-02-27T13:18:51;8.00;77.40
25320;DHT22;13256;49.012;8.610;2023-02-27T13:21:53;8.10;76.90
25320;DHT22;13256;49.012;8.610;2023-02-27T13:28:47;8.00;75.90
25320;DHT22;13256;49.012;8.610;2023-02-27T13:32:11;7.80;76.70
25320;DHT22;13256;49.012;8.610;2023-02-27T13:35:32;7.90;78.10
25320;DHT22;13256;49.012;8.610;2023-02-27T13:38:18;8.10;75.90
25320;DHT22;13256;49.012;8.610;2023-02-27T13:40:54;8.20;74.80
25320;DHT22;13256;49.012;8.610;2023-02-27T13:43:54;8.40;74.70
25320;DHT22;13256;49.012;8.610;2023-02-27T13:46:36;8.50;76.00
25320;DHT22;13256;49.012;8.610;2023-02-27T13:52:08;8.90;74.00
25320;DHT22;13256;49.012;8.610;2023-02-27T13:54:41;9.10;73.20
25320;DHT22;13256;49.012;8.610;2023-02-27T13:57:20;9.10;72.70
25320;DHT22;13256;49.012;8.610;2023-02-27T14:02:54;8.60;73.30
25320;DHT22;13256;49.012;8.610;2023-02-27T14:05:41;8.60;71.10
25320;DHT22;13256;49.012;8.610;2023-02-27T14:08:26;8.60;71.10
25320;DHT22;13256;49.012;8.610;2023-02-27T14:11:21;8.30;73.40
25320;DHT22;13256;49.012;8.610;2023-02-27T14:25:00;8.30;73.10
25320;DHT22;13256;49.012;8.610;2023-02-27T14:27:51;8.50;74.80
25320;DHT22;13256;49.012;8.610;2023-02-27T14:30:56;8.50;72.70
25320;DHT22;13256;49.012;8.610;2023-02-27T14:33:39;8.50;72.20
25320;DHT22;13256;49.012;8.610;2023-02-27T14:36:12;8.70;74.10
25320;DHT22;13256;49.012;8.610;2023-02-27T14:38:40;8.70;72.40
25320;DHT22;13256;49.012;8.610;2023-02-27T14:43:45;8.50;72.00
25320;DHT22;13256;49.012;8.610;2023-02-27T14:46:25;8.20;73.00
25320;DHT22;13256;49.012;8.610;2023-02-27T14:49:03;8.10;73.20
25320;DHT22;13256;49.012;8.610;2023-02-27T14:51:33;8.00;74.50
25320;DHT22;13256;49.012;8.610;2023-02-27T14:56:56;8.30;71.80
25320;DHT22;13256;49.012;8.610;2023-02-27T14:59:32;8.10;71.70
25320;DHT22;13256;49.012;8.610;2023-02-27T15:02:00;7.80;72.20
25320;DHT22;13256;49.012;8.610;2023-02-27T15:04:31;7.80;73.10
25320;DHT22;13256;49.012;8.610;2023-02-27T15:06:59;7.90;71.90
25320;DHT22;13256;49.012;8.610;2023-02-27T15:09:38;7.90;71.40
25320;DHT22;13256;49.012;8.610;2023-02-27T15:12:19;7.70;72.00
25320;DHT22;13256;49.012;8.610;2023-02-27T15:14:59;7.40;72.70
25320;DHT22;13256;49.012;8.610;2023-02-27T15:17:41;7.30;72.00
25320;DHT22;13256;49.012;8.610;2023-02-27T15:25:54;7.40;75.60
25320;DHT22;13256;49.012;8.610;2023-02-27T15:28:25;7.30;75.00
25320;DHT22;13256;49.012;8.610;2023-02-27T15:30:56;7.20;74.80
25320;DHT22;13256;49.012;8.610;2023-02-27T15:33:31;6.90;75.40
25320;DHT22;13256;49.012;8.610;2023-02-27T15:35:59;6.50;75.20
25320;DHT22;13256;49.012;8.610;2023-02-27T15:38:32;6.10;76.40
25320;DHT22;13256;49.012;8.610;2023-02-27T15:41:01;5.80;77.20
25320;DHT22;13256;49.012;8.610;2023-02-27T15:43:29;5.70;78.50
25320;DHT22;13256;49.012;8.610;2023-02-27T15:52:21;5.40;79.00
25320;DHT22;13256;49.012;8.610;2023-02-27T15:54:53;5.30;79.60
25320;DHT22;13256;49.012;8.610;2023-02-27T15:57:27;5.30;79.20
25320;DHT22;13256;49.012;8.610;2023-02-27T15:59:59;5.20;80.40
25320;DHT22;13256;49.012;8.610;2023-02-27T16:02:41;5.10;79.70
25320;DHT22;13256;49.012;8.610;2023-02-27T16:05:29;5.10;80.50
25320;DHT22;13256;49.012;8.610;2023-02-27T16:08:02;5.10;81.00
25320;DHT22;13256;49.012;8.610;2023-02-27T16:10:40;5.10;82.00
25320;DHT22;13256;49.012;8.610;2023-02-27T16:18:45;4.90;80.50
25320;DHT22;13256;49.012;8.610;2023-02-27T16:21:31;4.80;80.50
25320;DHT22;13256;49.012;8.610;2023-02-27T16:24:37;4.70;80.90
25320;DHT22;13256;49.012;8.610;2023-02-27T16:27:21;4.60;81.80
25320;DHT22;13256;49.012;8.610;2023-02-27T16:29:49;4.50;82.10
25320;DHT22;13256;49.012;8.610;2023-02-27T16:32:23;4.50;82.70
25320;DHT22;13256;49.012;8.610;2023-02-27T16:37:46;4.30;83.50
25320;DHT22;13256;49.012;8.610;2023-02-27T16:40:25;4.30;83.10
25320;DHT22;13256;49.012;8.610;2023-02-27T16:42:52;4.20;83.50
25320;DHT22;13256;49.012;8.610;2023-02-27T16:45:26;4.20;84.50
25320;DHT22;13256;49.012;8.610;2023-02-27T16:47:58;4.20;85.00
25320;DHT22;13256;49.012;8.610;2023-02-27T16:50:37;4.20;84.10
25320;DHT22;13256;49.012;8.610;2023-02-27T16:53:09;4.20;84.20
25320;DHT22;13256;49.012;8.610;2023-02-27T16:55:38;4.10;84.50
25320;DHT22;13256;49.012;8.610;2023-02-27T16:58:12;4.10;84.70
25320;DHT22;13256;49.012;8.610;2023-02-27T17:00:45;4.00;85.20
25320;DHT22;13256;49.012;8.610;2023-02-27T17:03:12;3.90;84.30
25320;DHT22;13256;49.012;8.610;2023-02-27T17:05:39;3.90;84.60
25320;DHT22;13256;49.012;8.610;2023-02-27T17:08:37;3.90;83.00
25320;DHT22;13256;49.012;8.610;2023-02-27T17:11:05;3.80;82.80
25320;DHT22;13256;49.012;8.610;2023-02-27T17:13:36;3.80;82.80
25320;DHT22;13256;49.012;8.610;2023-02-27T17:16:17;3.80;82.90
25320;DHT22;13256;49.012;8.610;2023-02-27T17:18:47;3.80;83.30
25320;DHT22;13256;49.012;8.610;2023-02-27T17:21:13;3.70;83.90
25320;DHT22;13256;49.012;8.610;2023-02-27T17:23:42;3.70;84.40
25320;DHT22;13256;49.012;8.610;2023-02-27T17:26:14;3.70;84.30
25320;DHT22;13256;49.012;8.610;2023-02-27T17:28:41;3.70;84.40
25320;DHT22;13256;49.012;8.610;2023-02-27T17:31:09;3.60;85.40
25320;DHT22;13256;49.012;8.610;2023-02-27T17:33:37;3.70;85.70
25320;DHT22;13256;49.012;8.610;2023-02-27T17:36:08;3.60;85.30
25320;DHT22;13256;49.012;8.610;2023-02-27T17:38:35;3.50;85.20
25320;DHT22;13256;49.012;8.610;2023-02-27T17:41:06;3.50;85.50
25320;DHT22;13256;49.012;8.610;2023-02-27T17:43:33;3.40;85.50
25320;DHT22;13256;49.012;8.610;2023-02-27T17:46:03;3.40;86.50
25320;DHT22;13256;49.012;8.610;2023-02-27T17:48:35;3.30;86.60
25320;DHT22;13256;49.012;8.610;2023-02-27T17:51:09;3.30;87.00
25320;DHT22;13256;49.012;8.610;2023-02-27T17:53:42;3.30;86.60
25320;DHT22;13256;49.012;8.610;2023-02-27T17:56:09;3.30;87.30
25320;DHT22;13256;49.012;8.610;2023-02-27T17:58:39;3.30;88.20
25320;DHT22;13256;49.012;8.610;2023-02-27T18:01:18;3.30;88.40
25320;DHT22;13256;49.012;8.610;2023-02-27T18:03:51;3.30;88.50
25320;DHT22;13256;49.012;8.610;2023-02-27T18:06:20;3.30;88.20
25320;DHT22;13256;49.012;8.610;2023-02-27T18:08:51;3.30;89.00
25320;DHT22;13256;49.012;8.610;2023-02-27T18:11:19;3.30;88.10
25320;DHT22;13256;49.012;8.610;2023-02-27T18:14:11;3.30;88.60
25320;DHT22;13256;49.012;8.610;2023-02-27T18:16:39;3.30;88.60
25320;DHT22;13256;49.012;8.610;2023-02-27T18:19:10;3.30;88.90
25320;DHT22;13256;49.012;8.610;2023-02-27T18:21:39;3.30;89.50
25320;DHT22;13256;49.012;8.610;2023-02-27T18:24:08;3.30;89.40
25320;DHT22;13256;49.012;8.610;2023-02-27T18:26:35;3.30;88.80
25320;DHT22;13256;49.012;8.610;2023-02-27T18:29:05;3.30;89.40
25320;DHT22;13256;49.012;8.610;2023-02-27T18:31:41;3.30;89.60
25320;DHT22;13256;49.012;8.610;2023-02-27T18:34:09;3.20;90.20
25320;DHT22;13256;49.012;8.610;2023-02-27T18:36:37;3.20;89.50
25320;DHT22;13256;49.012;8.610;2023-02-27T18:39:12;3.20;90.00
25320;DHT22;13256;49.012;8.610;2023-02-27T18:41:44;3.10;89.50
25320;DHT22;13256;49.012;8.610;2023-02-27T18:44:11;3.10;90.30
25320;DHT22;13256;49.012;8.610;2023-02-27T18:46:38;3.10;90.20
25320;DHT22;13256;49.012;8.610;2023-02-27T18:49:08;3.10;90.30
25320;DHT22;13256;49.012;8.610;2023-02-27T18:51:36;3.00;90.20
25320;DHT22;13256;49.012;8.610;2023-02-27T18:54:03;3.00;90.80
25320;DHT22;13256;49.012;8.610;2023-02-27T18:56:32;2.90;90.90
25320;DHT22;13256;49.012;8.610;2023-02-27T18:59:07;2.90;91.20
25320;DHT22;13256;49.012;8.610;2023-02-27T19:01:35;2.90;91.00
25320;DHT22;13256;49.012;8.610;2023-02-27T19:04:06;2.90;91.30
25320;DHT22;13256;49.012;8.610;2023-02-27T19:06:38;2.90;91.40
25320;DHT22;13256;49.012;8.610;2023-02-27T19:09:11;2.90;91.50
25320;DHT22;13256;49.012;8.610;2023-02-27T19:11:39;2.90;91.70
25320;DHT22;13256;49.012;8.610;2023-02-27T19:14:09;2.90;91.80
25320;DHT22;13256;49.012;8.610;2023-02-27T19:16:37;2.90;91.90
25320;DHT22;13256;49.012;8.610;2023-02-27T19:19:09;2.90;92.10
25320;DHT22;13256;49.012;8.610;2023-02-27T19:21:37;2.90;92.40
25320;DHT22;13256;49.012;8.610;2023-02-27T19:24:05;2.80;92.40
25320;DHT22;13256;49.012;8.610;2023-02-27T19:26:41;2.80;92.70
25320;DHT22;13256;49.012;8.610;2023-02-27T19:29:11;2.70;92.60
25320;DHT22;13256;49.012;8.610;2023-02-27T19:31:38;2.70;92.60
25320;DHT22;13256;49.012;8.610;2023-02-27T19:34:07;2.70;92.60
25320;DHT22;13256;49.012;8.610;2023-02-27T19:36:36;2.60;92.80
25320;DHT22;13256;49.012;8.610;2023-02-27T19:39:07;2.60;93.30
25320;DHT22;13256;49.012;8.610;2023-02-27T19:41:33;2.50;93.40
25320;DHT22;13256;49.012;8.610;2023-02-27T19:44:03;2.40;93.30
25320;DHT22;13256;49.012;8.610;2023-02-27T19:46:32;2.40;93.60
25320;DHT22;13256;49.012;8.610;2023-02-27T19:49:05;2.40;93.90
25320;DHT22;13256;49.012;8.610;2023-02-27T19:51:33;2.40;94.20
25320;DHT22;13256;49.012;8.610;2023-02-27T19:53:59;2.40;94.30
25320;DHT22;13256;49.012;8.610;2023-02-27T19:56:28;2.30;94.40
25320;DHT22;13256;49.012;8.610;2023-02-27T19:58:59;2.30;94.70
25320;DHT22;13256;49.012;8.610;2023-02-27T20:01:31;2.30;94.80
25320;DHT22;13256;49.012;8.610;2023-02-27T20:04:04;2.30;95.00
25320;DHT22;13256;49.012;8.610;2023-02-27T20:06:33;2.30;95.00
25320;DHT22;13256;49.012;8.610;2023-02-27T20:14:59;2.10;95.80
25320;DHT22;13256;49.012;8.610;2023-02-27T20:17:58;2.10;96.00
25320;DHT22;13256;49.012;8.610;2023-02-27T20:20:25;2.00;96.00
25320;DHT22;13256;49.012;8.610;2023-02-27T20:22:51;2.00;96.20
25320;DHT22;13256;49.012;8.610;2023-02-27T20:25:21;2.00;96.40
25320;DHT22;13256;49.012;8.610;2023-02-27T20:27:50;2.00;96.50
25320;DHT22;13256;49.012;8.610;2023-02-27T20:30:20;2.00;96.00
25320;DHT22;13256;49.012;8.610;2023-02-27T20:32:47;1.90;95.20
25320;DHT22;13256;49.012;8.610;2023-02-27T20:35:13;1.90;95.10
25320;DHT22;13256;49.012;8.610;2023-02-27T20:37:40;1.90;95.50
25320;DHT22;13256;49.012;8.610;2023-02-27T20:40:08;1.90;95.70
25320;DHT22;13256;49.012;8.610;2023-02-27T20:42:41;1.80;95.50
25320;DHT22;13256;49.012;8.610;2023-02-27T20:45:07;1.80;95.70
25320;DHT22;13256;49.012;8.610;2023-02-27T20:47:40;1.80;95.70
25320;DHT22;13256;49.012;8.610;2023-02-27T20:50:07;1.70;95.50
25320;DHT22;13256;49.012;8.610;2023-02-27T20:52:33;1.70;95.80
25320;DHT22;13256;49.012;8.610;2023-02-27T20:55:00;1.70;95.20
25320;DHT22;13256;49.012;8.610;2023-02-27T20:57:29;1.60;94.30
25320;DHT22;13256;49.012;8.610;2023-02-27T20:59:58;1.60;94.00
25320;DHT22;13256;49.012;8.610;2023-02-27T21:02:27;1.60;93.70
25320;DHT22;13256;49.012;8.610;2023-02-27T21:04:54;1.60;93.60
25320;DHT22;13256;49.012;8.610;2023-02-27T21:07:28;1.50;93.50
25320;DHT22;13256;49.012;8.610;2023-02-27T21:09:55;1.50;93.60